sensor_id;sensor_type;location;lat;lon;timestamp;pressure;altitude;pressure_sealevel;temperature;humidity
35507;BME280;36461;52.018;21.036;2023-01-28T00:02:00;101020.61;;;0.60;84.12
35507;BME280;36461;52.018;21.036;2023-01-28T00:04:28;101022.02;;;0.62;84.29
35507;BME280;36461;52.018;21.036;2023-01-28T00:06:56;101027.34;;;0.65;84.00
35507;BME280;36461;52.018;21.036;2023-01-28T00:09:24;101024.34;;;0.68;84.30
35507;BME280;36461;52.018;21.036;2023-01-28T00:11:51;101022.38;;;0.72;84.62
35507;BME280;36461;52.018;21.036;2023-01-28T00:14:19;101022.76;;;0.75;84.06
35507;BME280;36461;52.018;21.036;2023-01-28T00:16:47;101021.59;;;0.75;84.25
35507;BME280;36461;52.018;21.036;2023-01-28T00:19:15;101022.11;;;0.76;84.24
35507;BME280;36461;52.018;21.036;2023-01-28T00:21:43;101023.82;;;0.76;84.27
35507;BME280;36461;52.018;21.036;2023-01-28T00:24:11;101019.58;;;0.77;84.22
35507;BME280;36461;52.018;21.036;2023-01-28T00:26:39;101020.64;;;0.79;84.59
35507;BME280;36461;52.018;21.036;2023-01-28T00:29:08;101025.63;;;0.82;84.50
35507;BME280;36461;52.018;21.036;2023-01-28T00:31:36;101021.38;;;0.82;84.50
35507;BME280;36461;52.018;21.036;2023-01-28T00:34:04;101021.88;;;0.82;84.33
35507;BME280;36461;52.018;21.036;2023-01-28T00:36:32;101020.90;;;0.85;84.75
35507;BME280;36461;52.018;21.036;2023-01-28T00:39:00;101015.54;;;0.90;84.66
35507;BME280;36461;52.018;21.036;2023-01-28T00:41:29;101017.80;;;0.92;84.58
35507;BME280;36461;52.018;21.036;2023-01-28T00:43:58;101023.45;;;0.94;84.76
35507;BME280;36461;52.018;21.036;2023-01-28T00:46:26;101021.77;;;0.95;84.89
35507;BME280;36461;52.018;21.036;2023-01-28T00:48:54;101023.14;;;0.95;84.69
35507;BME280;36461;52.018;21.036;2023-01-28T00:51:23;101025.34;;;0.95;84.74
35507;BME280;36461;52.018;21.036;2023-01-28T00:53:50;101025.52;;;0.95;84.81
35507;BME280;36461;52.018;21.036;2023-01-28T00:56:19;101021.59;;;0.95;84.76
35507;BME280;36461;52.018;21.036;2023-01-28T00:58:47;101024.49;;;0.95;84.73
35507;BME280;36461;52.018;21.036;2023-01-28T01:01:18;101022.95;;;0.94;84.60
35507;BME280;36461;52.018;21.036;2023-01-28T01:03:47;101022.86;;;0.89;84.65
35507;BME280;36461;52.018;21.036;2023-01-28T01:06:15;101022.77;;;0.85;84.33
35507;BME280;36461;52.018;21.036;2023-01-28T01:08:43;101021.69;;;0.81;84.53
35507;BME280;36461;52.018;21.036;2023-01-28T01:11:17;101020.98;;;0.79;84.51
35507;BME280;36461;52.018;21.036;2023-01-28T01:13:53;101021.19;;;0.82;84.78
35507;BME280;36461;52.018;21.036;2023-01-28T01:16:26;101024.20;;;0.88;84.77
35507;BME280;36461;52.018;21.036;2023-01-28T01:18:55;101024.95;;;0.92;85.02
35507;BME280;36461;52.018;21.036;2023-01-28T01:21:25;101024.83;;;0.95;84.96
35507;BME280;36461;52.018;21.036;2023-01-28T01:23:54;101019.44;;;0.98;84.91
35507;BME280;36461;52.018;21.036;2023-01-28T01:26:22;101016.52;;;0.98;84.45
35507;BME280;36461;52.018;21.036;2023-01-28T01:28:51;101015.30;;;0.96;84.43
35507;BME280;36461;52.018;21.036;2023-01-28T01:31:20;101016.83;;;0.95;84.58
35507;BME280;36461;52.018;21.036;2023-01-28T01:33:50;101016.67;;;0.96;84.65
35507;BME280;36461;52.018;21.036;2023-01-28T01:36:19;101019.27;;;0.99;84.69
35507;BME280;36461;52.018;21.036;2023-01-28T01:38:52;101014.30;;;0.98;84.76
35507;BME280;36461;52.018;21.036;2023-01-28T01:41:29;101016.71;;;0.98;84.82
35507;BME280;36461;52.018;21.036;2023-01-28T01:44:00;101016.52;;;0.98;84.96
35507;BME280;36461;52.018;21.036;2023-01-28T01:49:01;101016.09;;;0.92;84.51
35507;BME280;36461;52.018;21.036;2023-01-28T01:51:34;101014.34;;;0.90;84.65
35507;BME280;36461;52.018;21.036;2023-01-28T01:54:04;101019.08;;;0.88;84.97
35507;BME280;36461;52.018;21.036;2023-01-28T01:56:37;101022.48;;;0.87;84.48
35507;BME280;36461;52.018;21.036;2023-01-28T01:59:14;101023.48;;;0.86;84.66
35507;BME280;36461;52.018;21.036;2023-01-28T02:01:44;101023.54;;;0.90;85.00
35507;BME280;36461;52.018;21.036;2023-01-28T02:04:25;101023.73;;;0.91;84.97
35507;BME280;36461;52.018;21.036;2023-01-28T02:06:57;101025.30;;;0.93;85.20
35507;BME280;36461;52.018;21.036;2023-01-28T02:09:29;101019.70;;;0.94;85.04
35507;BME280;36461;52.018;21.036;2023-01-28T02:12:05;101017.86;;;0.95;85.12
35507;BME280;36461;52.018;21.036;2023-01-28T02:14:38;101020.05;;;0.95;84.74
35507;BME280;36461;52.018;21.036;2023-01-28T02:17:08;101020.02;;;0.94;85.05
35507;BME280;36461;52.018;21.036;2023-01-28T02:19:45;101021.77;;;0.96;85.06
35507;BME280;36461;52.018;21.036;2023-01-28T02:25:18;101018.35;;;1.05;85.35
35507;BME280;36461;52.018;21.036;2023-01-28T02:30:48;101020.46;;;1.09;85.05
35507;BME280;36461;52.018;21.036;2023-01-28T02:33:34;101019.08;;;1.09;85.07
35507;BME280;36461;52.018;21.036;2023-01-28T02:36:26;101015.66;;;1.07;85.10
35507;BME280;36461;52.018;21.036;2023-01-28T02:39:00;101018.05;;;1.07;84.92
35507;BME280;36461;52.018;21.036;2023-01-28T02:41:45;101018.05;;;1.07;85.22
35507;BME280;36461;52.018;21.036;2023-01-28T02:44:14;101017.82;;;1.03;84.88
35507;BME280;36461;52.018;21.036;2023-01-28T02:46:42;101015.57;;;1.01;84.89
35507;BME280;36461;52.018;21.036;2023-01-28T02:55:57;101022.08;;;0.93;84.89
35507;BME280;36461;52.018;21.036;2023-01-28T03:01:27;101024.70;;;0.78;85.23
35507;BME280;36461;52.018;21.036;2023-01-28T03:06:36;101028.42;;;0.77;85.05
35507;BME280;36461;52.018;21.036;2023-01-28T03:09:09;101027.58;;;0.77;85.17
35507;BME280;36461;52.018;21.036;2023-01-28T03:11:58;101027.30;;;0.80;85.48
35507;BME280;36461;52.018;21.036;2023-01-28T03:14:53;101026.37;;;0.86;85.47
35507;BME280;36461;52.018;21.036;2023-01-28T03:17:50;101024.88;;;0.88;85.51
35507;BME280;36461;52.018;21.036;2023-01-28T03:23:53;101024.91;;;0.91;85.52
35507;BME280;36461;52.018;21.036;2023-01-28T03:29:58;101024.25;;;0.91;85.51
35507;BME280;36461;52.018;21.036;2023-01-28T03:32:47;101024.64;;;0.93;85.63
35507;BME280;36461;52.018;21.036;2023-01-28T03:35:35;101029.08;;;0.94;85.62
35507;BME280;36461;52.018;21.036;2023-01-28T03:38:23;101026.55;;;0.95;85.72
35507;BME280;36461;52.018;21.036;2023-01-28T03:41:02;101021.96;;;0.97;85.67
35507;BME280;36461;52.018;21.036;2023-01-28T03:43:30;101025.52;;;0.96;85.48
35507;BME280;36461;52.018;21.036;2023-01-28T03:45:59;101025.15;;;0.93;85.46
35507;BME280;36461;52.018;21.036;2023-01-28T03:48:28;101024.45;;;0.93;85.18
35507;BME280;36461;52.018;21.036;2023-01-28T03:50:57;101023.94;;;0.92;85.17
35507;BME280;36461;52.018;21.036;2023-01-28T03:53:28;101021.81;;;0.88;85.13
35507;BME280;36461;52.018;21.036;2023-01-28T03:55:57;101026.41;;;0.88;85.54
35507;BME280;36461;52.018;21.036;2023-01-28T03:58:25;101024.35;;;0.87;85.24
35507;BME280;36461;52.018;21.036;2023-01-28T04:01:14;101023.36;;;0.89;85.17
35507;BME280;36461;52.018;21.036;2023-01-28T04:03:42;101028.64;;;0.89;85.57
35507;BME280;36461;52.018;21.036;2023-01-28T04:06:14;101030.70;;;0.90;85.60
35507;BME280;36461;52.018;21.036;2023-01-28T04:08:58;101031.05;;;0.90;85.58
35507;BME280;36461;52.018;21.036;2023-01-28T04:11:29;101028.30;;;0.89;85.43
35507;BME280;36461;52.018;21.036;2023-01-28T04:13:58;101027.23;;;0.87;85.85
35507;BME280;36461;52.018;21.036;2023-01-28T04:16:32;101027.35;;;0.83;85.62
35507;BME280;36461;52.018;21.036;2023-01-28T04:19:00;101030.55;;;0.81;85.56
35507;BME280;36461;52.018;21.036;2023-01-28T04:21:29;101027.02;;;0.84;85.67
35507;BME280;36461;52.018;21.036;2023-01-28T04:23:58;101023.67;;;0.88;85.85
35507;BME280;36461;52.018;21.036;2023-01-28T04:26:27;101020.33;;;0.91;86.27
35507;BME280;36461;52.018;21.036;2023-01-28T04:28:56;101022.59;;;0.94;85.99
35507;BME280;36461;52.018;21.036;2023-01-28T04:31:24;101022.65;;;0.97;85.97
35507;BME280;36461;52.018;21.036;2023-01-28T04:34:12;101023.86;;;0.98;85.81
35507;BME280;36461;52.018;21.036;2023-01-28T04:37:16;101022.88;;;1.00;85.84
35507;BME280;36461;52.018;21.036;2023-01-28T04:40:06;101025.10;;;1.01;85.78
35507;BME280;36461;52.018;21.036;2023-01-28T04:42:56;101029.88;;;1.01;86.04
35507;BME280;36461;52.018;21.036;2023-01-28T04:45:36;101032.85;;;1.06;86.03
35507;BME280;36461;52.018;21.036;2023-01-28T04:48:23;101032.91;;;1.08;86.17
35507;BME280;36461;52.018;21.036;2023-01-28T04:51:10;101032.36;;;1.07;86.00
35507;BME280;36461;52.018;21.036;2023-01-28T04:53:45;101030.66;;;1.08;86.06
35507;BME280;36461;52.018;21.036;2023-01-28T04:56:25;101030.34;;;1.08;85.99
35507;BME280;36461;52.018;21.036;2023-01-28T04:58:53;101030.55;;;1.10;86.07
35507;BME280;36461;52.018;21.036;2023-01-28T05:01:22;101031.23;;;1.10;86.01
35507;BME280;36461;52.018;21.036;2023-01-28T05:03:52;101033.11;;;1.10;86.28
35507;BME280;36461;52.018;21.036;2023-01-28T05:06:24;101035.90;;;1.14;86.28
35507;BME280;36461;52.018;21.036;2023-01-28T05:08:59;101035.03;;;1.13;86.42
35507;BME280;36461;52.018;21.036;2023-01-28T05:11:28;101039.61;;;1.12;86.50
35507;BME280;36461;52.018;21.036;2023-01-28T05:14:00;101037.23;;;1.12;86.48
35507;BME280;36461;52.018;21.036;2023-01-28T05:16:34;101038.74;;;1.12;86.49
35507;BME280;36461;52.018;21.036;2023-01-28T05:19:03;101037.52;;;1.09;86.34
35507;BME280;36461;52.018;21.036;2023-01-28T05:21:40;101042.58;;;1.06;86.27
35507;BME280;36461;52.018;21.036;2023-01-28T05:24:17;101042.21;;;1.05;86.42
35507;BME280;36461;52.018;21.036;2023-01-28T05:26:46;101044.46;;;1.07;86.79
35507;BME280;36461;52.018;21.036;2023-01-28T05:29:14;101044.49;;;1.08;86.72
35507;BME280;36461;52.018;21.036;2023-01-28T05:31:42;101043.80;;;1.09;86.78
35507;BME280;36461;52.018;21.036;2023-01-28T05:34:10;101045.16;;;1.08;86.95
35507;BME280;36461;52.018;21.036;2023-01-28T05:36:38;101047.36;;;1.07;86.59
35507;BME280;36461;52.018;21.036;2023-01-28T05:39:24;101046.48;;;1.06;86.57
35507;BME280;36461;52.018;21.036;2023-01-28T05:41:52;101045.80;;;1.05;86.92
35507;BME280;36461;52.018;21.036;2023-01-28T05:44:19;101041.92;;;1.08;86.92
35507;BME280;36461;52.018;21.036;2023-01-28T05:47:03;101047.75;;;1.09;86.84
35507;BME280;36461;52.018;21.036;2023-01-28T05:49:48;101048.98;;;1.11;86.98
35507;BME280;36461;52.018;21.036;2023-01-28T05:52:39;101049.36;;;1.14;87.20
35507;BME280;36461;52.018;21.036;2023-01-28T05:55:13;101048.37;;;1.16;87.10
35507;BME280;36461;52.018;21.036;2023-01-28T05:57:41;101045.82;;;1.16;86.99
35507;BME280;36461;52.018;21.036;2023-01-28T06:00:13;101041.41;;;1.17;86.89
35507;BME280;36461;52.018;21.036;2023-01-28T06:02:44;101044.51;;;1.19;86.89
35507;BME280;36461;52.018;21.036;2023-01-28T06:05:14;101046.94;;;1.22;87.25
35507;BME280;36461;52.018;21.036;2023-01-28T06:07:44;101051.03;;;1.22;86.97
35507;BME280;36461;52.018;21.036;2023-01-28T06:10:13;101050.18;;;1.22;86.88
35507;BME280;36461;52.018;21.036;2023-01-28T06:12:41;101048.85;;;1.24;87.04
35507;BME280;36461;52.018;21.036;2023-01-28T06:15:28;101048.29;;;1.21;86.65
35507;BME280;36461;52.018;21.036;2023-01-28T06:18:02;101055.11;;;1.22;87.07
35507;BME280;36461;52.018;21.036;2023-01-28T06:20:33;101057.71;;;1.24;86.98
35507;BME280;36461;52.018;21.036;2023-01-28T06:23:01;101059.77;;;1.25;87.08
35507;BME280;36461;52.018;21.036;2023-01-28T06:25:29;101060.84;;;1.27;87.07
35507;BME280;36461;52.018;21.036;2023-01-28T06:28:02;101065.81;;;1.28;87.04
35507;BME280;36461;52.018;21.036;2023-01-28T06:30:30;101061.14;;;1.26;86.65
35507;BME280;36461;52.018;21.036;2023-01-28T06:32:58;101061.85;;;1.26;86.97
35507;BME280;36461;52.018;21.036;2023-01-28T06:35:26;101065.25;;;1.26;86.80
35507;BME280;36461;52.018;21.036;2023-01-28T06:37:54;101067.61;;;1.25;87.02
35507;BME280;36461;52.018;21.036;2023-01-28T06:40:22;101070.11;;;1.22;86.79
35507;BME280;36461;52.018;21.036;2023-01-28T06:42:51;101076.38;;;1.19;87.12
35507;BME280;36461;52.018;21.036;2023-01-28T06:45:19;101078.23;;;1.17;86.87
35507;BME280;36461;52.018;21.036;2023-01-28T06:47:47;101079.19;;;1.13;87.05
35507;BME280;36461;52.018;21.036;2023-01-28T06:50:15;101082.88;;;1.11;87.01
35507;BME280;36461;52.018;21.036;2023-01-28T06:52:44;101085.42;;;1.09;87.26
35507;BME280;36461;52.018;21.036;2023-01-28T06:55:12;101088.30;;;1.09;87.03
35507;BME280;36461;52.018;21.036;2023-01-28T06:57:41;101092.38;;;1.08;86.84
35507;BME280;36461;52.018;21.036;2023-01-28T07:00:10;101098.85;;;1.07;87.17
35507;BME280;36461;52.018;21.036;2023-01-28T07:02:40;101098.18;;;1.08;87.01
35507;BME280;36461;52.018;21.036;2023-01-28T07:05:09;101103.38;;;1.12;87.26
35507;BME280;36461;52.018;21.036;2023-01-28T07:07:37;101098.63;;;1.14;87.01
35507;BME280;36461;52.018;21.036;2023-01-28T07:10:09;101105.63;;;1.14;87.20
35507;BME280;36461;52.018;21.036;2023-01-28T07:12:38;101105.66;;;1.16;87.04
35507;BME280;36461;52.018;21.036;2023-01-28T07:15:07;101107.59;;;1.20;87.00
35507;BME280;36461;52.018;21.036;2023-01-28T07:17:42;101105.94;;;1.22;87.02
35507;BME280;36461;52.018;21.036;2023-01-28T07:20:12;101106.50;;;1.25;86.85
35507;BME280;36461;52.018;21.036;2023-01-28T07:22:43;101105.02;;;1.29;87.08
35507;BME280;36461;52.018;21.036;2023-01-28T07:25:13;101103.95;;;1.25;86.61
35507;BME280;36461;52.018;21.036;2023-01-28T07:27:50;101107.55;;;1.26;86.72
35507;BME280;36461;52.018;21.036;2023-01-28T07:30:19;101105.86;;;1.28;86.99
35507;BME280;36461;52.018;21.036;2023-01-28T07:32:55;101105.59;;;1.31;86.94
35507;BME280;36461;52.018;21.036;2023-01-28T07:35:24;101105.63;;;1.34;86.79
35507;BME280;36461;52.018;21.036;2023-01-28T07:37:57;101110.95;;;1.35;86.86
35507;BME280;36461;52.018;21.036;2023-01-28T07:40:27;101107.89;;;1.37;86.53
35507;BME280;36461;52.018;21.036;2023-01-28T07:42:55;101103.13;;;1.37;86.57
35507;BME280;36461;52.018;21.036;2023-01-28T07:45:24;101110.14;;;1.39;86.75
35507;BME280;36461;52.018;21.036;2023-01-28T07:47:56;101114.26;;;1.40;86.58
35507;BME280;36461;52.018;21.036;2023-01-28T07:50:26;101120.27;;;1.42;86.55
35507;BME280;36461;52.018;21.036;2023-01-28T07:52:56;101120.83;;;1.44;87.01
35507;BME280;36461;52.018;21.036;2023-01-28T07:55:25;101118.08;;;1.43;86.61
35507;BME280;36461;52.018;21.036;2023-01-28T07:57:58;101112.26;;;1.43;86.68
35507;BME280;36461;52.018;21.036;2023-01-28T08:00:29;101112.45;;;1.44;86.47
35507;BME280;36461;52.018;21.036;2023-01-28T08:03:03;101111.44;;;1.45;86.43
35507;BME280;36461;52.018;21.036;2023-01-28T08:08:07;101112.70;;;1.48;86.31
35507;BME280;36461;52.018;21.036;2023-01-28T08:10:36;101116.61;;;1.48;86.29
35507;BME280;36461;52.018;21.036;2023-01-28T08:13:05;101119.41;;;1.52;86.60
35507;BME280;36461;52.018;21.036;2023-01-28T08:15:33;101114.98;;;1.52;86.07
35507;BME280;36461;52.018;21.036;2023-01-28T08:18:03;101117.56;;;1.54;86.29
35507;BME280;36461;52.018;21.036;2023-01-28T08:20:32;101118.16;;;1.59;86.60
35507;BME280;36461;52.018;21.036;2023-01-28T08:23:08;101120.41;;;1.60;86.44
35507;BME280;36461;52.018;21.036;2023-01-28T08:25:38;101117.22;;;1.64;86.21
35507;BME280;36461;52.018;21.036;2023-01-28T08:28:07;101115.57;;;1.67;86.56
35507;BME280;36461;52.018;21.036;2023-01-28T08:30:36;101116.80;;;1.70;86.25
35507;BME280;36461;52.018;21.036;2023-01-28T08:33:07;101118.20;;;1.73;86.19
35507;BME280;36461;52.018;21.036;2023-01-28T08:35:36;101116.66;;;1.72;86.17
35507;BME280;36461;52.018;21.036;2023-01-28T08:38:06;101118.84;;;1.70;86.06
35507;BME280;36461;52.018;21.036;2023-01-28T08:40:34;101119.77;;;1.74;86.29
35507;BME280;36461;52.018;21.036;2023-01-28T08:43:03;101115.88;;;1.76;86.22
35507;BME280;36461;52.018;21.036;2023-01-28T08:45:31;101119.54;;;1.81;86.23
35507;BME280;36461;52.018;21.036;2023-01-28T08:48:02;101116.30;;;1.82;85.59
35507;BME280;36461;52.018;21.036;2023-01-28T08:50:33;101120.73;;;1.81;85.89
35507;BME280;36461;52.018;21.036;2023-01-28T08:53:19;101119.42;;;1.85;85.87
35507;BME280;36461;52.018;21.036;2023-01-28T08:55:47;101115.66;;;1.85;85.49
35507;BME280;36461;52.018;21.036;2023-01-28T08:58:16;101116.94;;;1.89;85.91
35507;BME280;36461;52.018;21.036;2023-01-28T09:00:45;101120.34;;;1.89;85.77
35507;BME280;36461;52.018;21.036;2023-01-28T09:03:14;101121.36;;;1.90;85.62
35507;BME280;36461;52.018;21.036;2023-01-28T09:05:42;101121.55;;;1.90;85.62
35507;BME280;36461;52.018;21.036;2023-01-28T09:08:13;101122.43;;;1.92;85.37
35507;BME280;36461;52.018;21.036;2023-01-28T09:10:41;101126.21;;;1.94;85.51
35507;BME280;36461;52.018;21.036;2023-01-28T09:13:12;101129.13;;;1.94;85.31
35507;BME280;36461;52.018;21.036;2023-01-28T09:15:41;101131.13;;;1.92;85.21
35507;BME280;36461;52.018;21.036;2023-01-28T09:18:10;101135.90;;;1.91;85.22
35507;BME280;36461;52.018;21.036;2023-01-28T09:20:38;101136.60;;;1.92;85.27
35507;BME280;36461;52.018;21.036;2023-01-28T09:23:06;101133.91;;;1.95;85.31
35507;BME280;36461;52.018;21.036;2023-01-28T09:25:34;101139.09;;;1.98;85.40
35507;BME280;36461;52.018;21.036;2023-01-28T09:28:05;101138.82;;;2.04;85.64
35507;BME280;36461;52.018;21.036;2023-01-28T09:30:34;101139.23;;;2.08;85.35
35507;BME280;36461;52.018;21.036;2023-01-28T09:33:05;101140.29;;;2.11;85.65
35507;BME280;36461;52.018;21.036;2023-01-28T09:35:33;101139.66;;;2.14;85.51
35507;BME280;36461;52.018;21.036;2023-01-28T09:38:01;101142.96;;;2.18;85.73
35507;BME280;36461;52.018;21.036;2023-01-28T09:40:41;101142.13;;;2.20;85.43
35507;BME280;36461;52.018;21.036;2023-01-28T09:46:10;101142.01;;;2.24;85.73
35507;BME280;36461;52.018;21.036;2023-01-28T09:48:43;101143.67;;;2.20;85.40
35507;BME280;36461;52.018;21.036;2023-01-28T09:51:27;101140.14;;;2.12;84.95
35507;BME280;36461;52.018;21.036;2023-01-28T09:54:03;101142.34;;;2.10;85.29
35507;BME280;36461;52.018;21.036;2023-01-28T09:56:41;101139.80;;;2.12;85.44
35507;BME280;36461;52.018;21.036;2023-01-28T09:59:17;101133.18;;;2.14;85.34
35507;BME280;36461;52.018;21.036;2023-01-28T10:01:57;101128.88;;;2.13;85.55
35507;BME280;36461;52.018;21.036;2023-01-28T10:10:38;101131.68;;;2.06;85.22
35507;BME280;36461;52.018;21.036;2023-01-28T10:13:13;101127.95;;;2.08;85.64
35507;BME280;36461;52.018;21.036;2023-01-28T10:18:54;101118.20;;;2.07;85.02
35507;BME280;36461;52.018;21.036;2023-01-28T10:21:32;101117.92;;;2.10;85.31
35507;BME280;36461;52.018;21.036;2023-01-28T10:24:24;101122.07;;;2.14;85.25
35507;BME280;36461;52.018;21.036;2023-01-28T10:26:57;101120.23;;;2.16;84.94
35507;BME280;36461;52.018;21.036;2023-01-28T10:29:32;101120.27;;;2.19;85.54
35507;BME280;36461;52.018;21.036;2023-01-28T10:32:12;101119.77;;;2.20;85.44
35507;BME280;36461;52.018;21.036;2023-01-28T10:34:43;101114.77;;;2.18;85.46
35507;BME280;36461;52.018;21.036;2023-01-28T10:37:13;101110.50;;;2.17;85.14
35507;BME280;36461;52.018;21.036;2023-01-28T10:39:43;101111.63;;;2.12;85.16
35507;BME280;36461;52.018;21.036;2023-01-28T10:42:22;101113.10;;;2.07;85.02
35507;BME280;36461;52.018;21.036;2023-01-28T10:44:58;101114.82;;;2.08;85.22
35507;BME280;36461;52.018;21.036;2023-01-28T10:47:34;101111.11;;;2.12;85.37
35507;BME280;36461;52.018;21.036;2023-01-28T10:50:14;101112.80;;;2.10;85.18
35507;BME280;36461;52.018;21.036;2023-01-28T10:52:58;101116.25;;;2.13;85.07
35507;BME280;36461;52.018;21.036;2023-01-28T10:55:29;101110.67;;;2.17;85.25
35507;BME280;36461;52.018;21.036;2023-01-28T10:57:59;101104.59;;;2.22;85.30
35507;BME280;36461;52.018;21.036;2023-01-28T11:00:31;101108.52;;;2.22;85.22
35507;BME280;36461;52.018;21.036;2023-01-28T11:03:00;101106.65;;;2.22;85.29
35507;BME280;36461;52.018;21.036;2023-01-28T11:05:29;101107.14;;;2.21;85.13
35507;BME280;36461;52.018;21.036;2023-01-28T11:08:15;101105.23;;;2.19;85.14
35507;BME280;36461;52.018;21.036;2023-01-28T11:10:45;101102.98;;;2.15;85.29
35507;BME280;36461;52.018;21.036;2023-01-28T11:13:25;101102.40;;;2.11;84.78
35507;BME280;36461;52.018;21.036;2023-01-28T11:18:47;101097.96;;;2.12;85.07
35507;BME280;36461;52.018;21.036;2023-01-28T11:21:28;101103.93;;;2.11;85.14
35507;BME280;36461;52.018;21.036;2023-01-28T11:24:13;101099.58;;;2.06;85.09
35507;BME280;36461;52.018;21.036;2023-01-28T11:26:47;101097.99;;;2.01;85.05
35507;BME280;36461;52.018;21.036;2023-01-28T11:29:33;101097.79;;;2.00;85.03
35507;BME280;36461;52.018;21.036;2023-01-28T11:32:15;101095.89;;;1.98;84.96
35507;BME280;36461;52.018;21.036;2023-01-28T11:34:53;101093.12;;;1.95;84.86
35507;BME280;36461;52.018;21.036;2023-01-28T11:37:26;101088.27;;;1.91;84.91
35507;BME280;36461;52.018;21.036;2023-01-28T11:40:24;101086.35;;;1.87;85.10
35507;BME280;36461;52.018;21.036;2023-01-28T11:42:53;101085.79;;;1.84;84.89
35507;BME280;36461;52.018;21.036;2023-01-28T11:51:38;101086.64;;;1.84;85.28
35507;BME280;36461;52.018;21.036;2023-01-28T12:02:54;101084.52;;;1.91;85.60
35507;BME280;36461;52.018;21.036;2023-01-28T12:05:51;101087.65;;;1.95;85.50
35507;BME280;36461;52.018;21.036;2023-01-28T12:08:23;101086.45;;;1.95;85.49
35507;BME280;36461;52.018;21.036;2023-01-28T12:13:32;101081.96;;;1.91;85.49
35507;BME280;36461;52.018;21.036;2023-01-28T12:21:38;101072.34;;;1.87;85.67
35507;BME280;36461;52.018;21.036;2023-01-28T12:24:45;101072.17;;;1.87;85.38
35507;BME280;36461;52.018;21.036;2023-01-28T12:27:29;101070.79;;;1.86;85.49
35507;BME280;36461;52.018;21.036;2023-01-28T12:33:03;101073.27;;;1.80;85.14
35507;BME280;36461;52.018;21.036;2023-01-28T12:41:03;101068.07;;;1.75;85.48
35507;BME280;36461;52.018;21.036;2023-01-28T12:44:02;101070.41;;;1.72;85.72
35507;BME280;36461;52.018;21.036;2023-01-28T12:46:44;101076.71;;;1.71;85.47
35507;BME280;36461;52.018;21.036;2023-01-28T12:49:22;101070.90;;;1.69;85.45
35507;BME280;36461;52.018;21.036;2023-01-28T12:54:38;101072.84;;;1.75;85.58
35507;BME280;36461;52.018;21.036;2023-01-28T12:57:15;101069.83;;;1.77;85.94
35507;BME280;36461;52.018;21.036;2023-01-28T12:59:50;101071.04;;;1.79;85.54
35507;BME280;36461;52.018;21.036;2023-01-28T13:02:30;101070.73;;;1.81;85.95
35507;BME280;36461;52.018;21.036;2023-01-28T13:12:40;101080.53;;;1.86;85.95
35507;BME280;36461;52.018;21.036;2023-01-28T13:15:12;101076.41;;;1.84;85.61
35507;BME280;36461;52.018;21.036;2023-01-28T13:18:01;101077.09;;;1.84;85.95
35507;BME280;36461;52.018;21.036;2023-01-28T13:20:49;101073.80;;;1.81;85.74
35507;BME280;36461;52.018;21.036;2023-01-28T13:23:38;101068.45;;;1.78;85.38
35507;BME280;36461;52.018;21.036;2023-01-28T13:28:52;101073.63;;;1.70;85.63
35507;BME280;36461;52.018;21.036;2023-01-28T13:31:22;101074.48;;;1.70;85.62
35507;BME280;36461;52.018;21.036;2023-01-28T13:36:37;101082.70;;;1.61;85.39
35507;BME280;36461;52.018;21.036;2023-01-28T13:41:49;101083.67;;;1.57;85.59
35507;BME280;36461;52.018;21.036;2023-01-28T13:46:45;101088.29;;;1.58;85.87
35507;BME280;36461;52.018;21.036;2023-01-28T13:49:47;101091.03;;;1.59;86.08
35507;BME280;36461;52.018;21.036;2023-01-28T13:52:23;101090.16;;;1.57;85.90
35507;BME280;36461;52.018;21.036;2023-01-28T13:55:05;101091.50;;;1.57;86.09
35507;BME280;36461;52.018;21.036;2023-01-28T14:09:18;101089.14;;;1.48;85.65
35507;BME280;36461;52.018;21.036;2023-01-28T14:15:02;101086.01;;;1.54;86.23
35507;BME280;36461;52.018;21.036;2023-01-28T14:20:32;101083.23;;;1.51;85.53
35507;BME280;36461;52.018;21.036;2023-01-28T14:23:12;101082.71;;;1.41;85.34
35507;BME280;36461;52.018;21.036;2023-01-28T14:28:16;101084.48;;;1.33;85.65
35507;BME280;36461;52.018;21.036;2023-01-28T14:30:53;101091.58;;;1.30;85.79
35507;BME280;36461;52.018;21.036;2023-01-28T14:33:23;101090.42;;;1.32;85.87
35507;BME280;36461;52.018;21.036;2023-01-28T14:35:52;101087.65;;;1.30;85.82
35507;BME280;36461;52.018;21.036;2023-01-28T14:38:20;101084.23;;;1.29;86.07
35507;BME280;36461;52.018;21.036;2023-01-28T14:40:53;101080.64;;;1.29;85.79
35507;BME280;36461;52.018;21.036;2023-01-28T14:43:24;101085.23;;;1.28;86.07
35507;BME280;36461;52.018;21.036;2023-01-28T14:57:31;101096.80;;;1.36;86.24
35507;BME280;36461;52.018;21.036;2023-01-28T15:00:18;101096.67;;;1.39;86.16
35507;BME280;36461;52.018;21.036;2023-01-28T15:02:46;101096.98;;;1.37;86.18
35507;BME280;36461;52.018;21.036;2023-01-28T15:05:18;101098.69;;;1.37;86.04
35507;BME280;36461;52.018;21.036;2023-01-28T15:07:47;101098.54;;;1.38;85.99
35507;BME280;36461;52.018;21.036;2023-01-28T15:10:30;101091.05;;;1.39;86.10
35507;BME280;36461;52.018;21.036;2023-01-28T15:13:04;101088.16;;;1.40;85.95
35507;BME280;36461;52.018;21.036;2023-01-28T15:15:36;101091.34;;;1.36;85.33
35507;BME280;36461;52.018;21.036;2023-01-28T15:20:45;101091.25;;;1.31;85.44
35507;BME280;36461;52.018;21.036;2023-01-28T15:23:16;101096.71;;;1.31;85.66
35507;BME280;36461;52.018;21.036;2023-01-28T15:25:45;101098.05;;;1.29;85.60
35507;BME280;36461;52.018;21.036;2023-01-28T15:28:29;101103.82;;;1.28;85.78
35507;BME280;36461;52.018;21.036;2023-01-28T15:30:58;101103.74;;;1.23;85.38
35507;BME280;36461;52.018;21.036;2023-01-28T15:33:26;101101.95;;;1.18;85.51
35507;BME280;36461;52.018;21.036;2023-01-28T15:35:56;101108.30;;;1.12;85.48